EFHKEFJO

Guest
Details From EFHK - Helsinki Vantaa
To EFJO - Joensuu
Flight Number -
Tags Generated
Created
Modified
Stats Distance 193 nm / 358 km
Max Altitude 0 ft / 0 m
Waypoints 2
Social Downloads 2
Likes 0
Share VATSIM

Download

Looking for another format? Having issues loading an existing format? Contact us
Advertisement - Login to hide

Notes

Generated

Route

EFHK EFJO

ID Type Via Altitude Latitude Longitude Leg Dist Tot Dist Heading (true) Name
O EFHK APT - 0 ft / 0 m 60.33028˚ 24.96450˚ - 0 nm - -
O EFJO APT - 0 ft / 0 m 62.66217˚ 29.60756˚ 193 nm 193 nm 42° / 46° Joensuu

Altitude Profile

Advertisement - Login to hide

Weather


0- 5 10 15 20 25 30 35+ Temperature / ° C

Clouds and Precipitation
Forecast for 2017-12-14 00:00 UTC. Updated 2 hours ago

Ground ~20,000 ft ~40,000 ft Winds

EFHK

Details ICAO EFHK (HEL)
Name Helsinki Vantaa
Region Finland
Timezone Europe/Helsinki (UTC+2.0)
Stats Elevation 179 ft / 55 m (AMSL)
Location 60.320569° 24.952668°
Runways 3
Magnetic Variation 8.953° E

METAR

EFHK 132250Z 20017KT 9000 -RA FEW009 SCT015 BKN030 02/00 Q0997 NOSIG

Decode

TAF

TAF EFHK 132028Z 1321/1421 20013KT 9999 SCT009 BKN030 TEMPO 1321/1401 6000 -SHRASN BKN009 SCT035CB TEMPO 1401/1407 BKN009 TEMPO 1416/1421 BKN009

Decode

Departure Runways

ID Width Length Bearing (true) Bearing (mag) Surface Threshold Offset Overrun Length
04L 197 ft / 60 m 9,817 ft / 2,992 m 47.43° 38.48° Asphalt 800 ft / 244 m 0 ft / 0 m
04R 197 ft / 60 m 10,472 ft / 3,192 m 47.46° 38.51° Asphalt 262 ft / 80 m 0 ft / 0 m
15 197 ft / 60 m 9,497 ft / 2,895 m 153.08° 144.13° Asphalt 0 ft / 0 m 198 ft / 60 m
22L 197 ft / 60 m 10,472 ft / 3,192 m 227.50° 218.55° Asphalt 0 ft / 0 m 197 ft / 60 m
22R 197 ft / 60 m 9,817 ft / 2,992 m 227.46° 218.51° Asphalt 912 ft / 278 m 0 ft / 0 m
33 197 ft / 60 m 9,497 ft / 2,895 m 333.10° 324.15° Asphalt 0 ft / 0 m 197 ft / 60 m

EFJO

Details ICAO EFJO (JOE)
Name Joensuu
Region Finland
Timezone Europe/Helsinki (UTC+2.0)
Stats Elevation 398 ft / 121 m (AMSL)
Location 62.658744° 29.613978°
Runways 2
Magnetic Variation 11.619° E

METAR

EFJO 132250Z 19009KT 160V230 5000 -RASN OVC006 00/M01 Q0994

Decode

TAF

Not found

Destination Runways

ID Width Length Bearing (true) Bearing (mag) Surface Threshold Offset Overrun Length
10 171 ft / 52 m 8,174 ft / 2,491 m 110.33° 98.71° Asphalt 0 ft / 0 m 200 ft / 61 m
17 98 ft / 30 m 3,928 ft / 1,197 m 180.66° 169.04° Dirt 0 ft / 0 m 170 ft / 52 m
28 171 ft / 52 m 8,174 ft / 2,491 m 290.37° 278.75° Asphalt 0 ft / 0 m 0 ft / 0 m
35 98 ft / 30 m 3,928 ft / 1,197 m 0.66° 349.04° Dirt 0 ft / 0 m 575 ft / 175 m

Approach Navaids

Runway Type Ident Frequency Range Bearing (true) Bearing (mag) Slope Elevation
28 Localiser JO 109.50 MHz 18 nm / 33 km 290.33° 278.71° - 398 ft / 121 m (AMSL)
28 Glidescope JO 109.50 MHz 10 nm / 19 km 290.35° 278.73° 3.00° 398 ft / 121 m (AMSL)
28 DME JO 109.50 MHz 18 nm / 33 km - - - 418 ft / 127 m (AMSL)

Popular Alternatives